PWSweather.com
Personal Weather Stations
Station Observations
KILMORRI1
Goose Lake, Morris, IL 60450

Goose LakeMorris, IL 60450

Lat: 41.34, Lon: -88.3

Elevation: 523

Station Type:

www.gooselakeweather.com

High Low Average
Temperature 55.0°F12.8°C 36.5°F2.5°C 45.7°F7.6°C
Dew Point 29.8°F-1.2°C 15.4°F-9.2°C 23.4°F-4.8°C
Winds 24.2 mph 38.9 kmh 1.2 mph 1.9 kmh 10.0 mph WSW16.1 kmh WSW
Wind Gusts 36.8 mph59.2 kmh 2.3 mph3.7 kmh 16.0 mph25.7 kmh
Humidity 64% 22% 44%
Pressure 30.17 in1021.7 mb 29.97 in1014.9 mb -
Precipitation 0.00 in0.0 mm - -
Hour Temp Dew Point Humidity Winds Wind Gusts Pressure Precip Precip Rate Daily Precip Total
12:00 AM 40.4°F4.7°C 30.3°F-0.9°C 67% 8.1 mph SSW13.0 kmh SSW 11.5 mph18.5 kmh 29.94 in1013.9 mb - 0.00 in0.0 mm 0.27 in6.9 mm
12:10 AM 40.2°F4.6°C 30.5°F-0.8°C 68% 8.1 mph SW13.0 kmh SW 11.5 mph18.5 kmh 29.94 in1013.9 mb - 0.00 in0.0 mm 0.27 in6.9 mm
12:20 AM 39.9°F4.4°C 30.2°F-1.0°C 68% 6.9 mph SW11.1 kmh SW 9.2 mph14.8 kmh 29.94 in1013.9 mb - 0.00 in0.0 mm 0.27 in6.9 mm
12:30 AM 39.3°F4.1°C 30.0°F-1.1°C 69% 8.1 mph SW13.0 kmh SW 11.5 mph18.5 kmh 29.94 in1013.9 mb - 0.00 in0.0 mm 0.27 in6.9 mm
12:40 AM 39.5°F4.2°C 29.8°F-1.2°C 68% 6.9 mph SW11.1 kmh SW 11.5 mph18.5 kmh 29.95 in1014.2 mb - 0.00 in0.0 mm 0.27 in6.9 mm
12:50 AM 40.7°F4.8°C 28.2°F-2.1°C 61% 6.9 mph SW11.1 kmh SW 9.2 mph14.8 kmh 29.95 in1014.2 mb - 0.00 in0.0 mm 0.27 in6.9 mm
01:00 AM 41.5°F5.3°C 28.6°F-1.9°C 60% 8.1 mph WSW13.0 kmh WSW 12.7 mph20.4 kmh 29.97 in1014.9 mb - 0.00 in0.0 mm 0.00 in0.0 mm
01:10 AM 41.9°F5.5°C 28.2°F-2.1°C 58% 9.2 mph WSW14.8 kmh WSW 11.5 mph18.5 kmh 29.97 in1014.9 mb - 0.00 in0.0 mm 0.00 in0.0 mm
01:20 AM 42.2°F5.7°C 29.3°F-1.5°C 60% 8.1 mph WSW13.0 kmh WSW 13.8 mph22.2 kmh 29.98 in1015.2 mb - 0.00 in0.0 mm 0.00 in0.0 mm
01:30 AM 42.5°F5.8°C 29.1°F-1.6°C 59% 5.8 mph WSW9.3 kmh WSW 10.4 mph16.7 kmh 29.99 in1015.6 mb - 0.00 in0.0 mm 0.00 in0.0 mm
01:40 AM 42.7°F5.9°C 29.8°F-1.2°C 60% 8.1 mph WSW13.0 kmh WSW 11.5 mph18.5 kmh 29.99 in1015.6 mb - 0.00 in0.0 mm 0.00 in0.0 mm
01:50 AM 42.7°F5.9°C 29.8°F-1.2°C 60% 6.9 mph WSW11.1 kmh WSW 10.4 mph16.7 kmh 30.00 in1015.9 mb - 0.00 in0.0 mm 0.00 in0.0 mm
02:00 AM 42.6°F5.9°C 29.6°F-1.3°C 60% 6.9 mph WSW11.1 kmh WSW 15.0 mph24.1 kmh 29.99 in1015.6 mb - 0.00 in0.0 mm 0.00 in0.0 mm
02:10 AM 42.6°F5.9°C 29.2°F-1.6°C 59% 4.6 mph WSW7.4 kmh WSW 6.9 mph11.1 kmh 30.00 in1015.9 mb - 0.00 in0.0 mm 0.00 in0.0 mm
02:20 AM 42.1°F5.6°C 28.8°F-1.8°C 59% 5.8 mph WSW9.3 kmh WSW 9.2 mph14.8 kmh 30.00 in1015.9 mb - 0.00 in0.0 mm 0.00 in0.0 mm
02:30 AM 41.6°F5.3°C 28.7°F-1.8°C 60% 6.9 mph SW11.1 kmh SW 10.4 mph16.7 kmh 30.00 in1015.9 mb - 0.00 in0.0 mm 0.00 in0.0 mm
02:40 AM 41.5°F5.3°C 28.6°F-1.9°C 60% 5.8 mph SW9.3 kmh SW 6.9 mph11.1 kmh 30.01 in1016.3 mb - 0.00 in0.0 mm 0.00 in0.0 mm
02:50 AM 41.2°F5.1°C 29.2°F-1.6°C 62% 5.8 mph SW9.3 kmh SW 9.2 mph14.8 kmh 30.00 in1015.9 mb - 0.00 in0.0 mm 0.00 in0.0 mm
03:00 AM 41.2°F5.1°C 28.8°F-1.8°C 61% 5.8 mph SW9.3 kmh SW 11.5 mph18.5 kmh 30.01 in1016.3 mb - 0.00 in0.0 mm 0.00 in0.0 mm
03:10 AM 41.1°F5.1°C 28.3°F-2.1°C 60% 5.8 mph SW9.3 kmh SW 9.2 mph14.8 kmh 30.00 in1015.9 mb - 0.00 in0.0 mm 0.00 in0.0 mm
03:20 AM 40.8°F4.9°C 28.4°F-2.0°C 61% 5.8 mph SW9.3 kmh SW 10.4 mph16.7 kmh 30.00 in1015.9 mb - 0.00 in0.0 mm 0.00 in0.0 mm
03:30 AM 40.8°F4.9°C 28.0°F-2.2°C 60% 8.1 mph SW13.0 kmh SW 11.5 mph18.5 kmh 30.00 in1015.9 mb - 0.00 in0.0 mm 0.00 in0.0 mm
03:40 AM 40.6°F4.8°C 27.8°F-2.3°C 60% 8.1 mph SW13.0 kmh SW 13.8 mph22.2 kmh 30.00 in1015.9 mb - 0.00 in0.0 mm 0.00 in0.0 mm
03:50 AM 40.1°F4.5°C 27.7°F-2.4°C 61% 6.9 mph SW11.1 kmh SW 11.5 mph18.5 kmh 30.00 in1015.9 mb - 0.00 in0.0 mm 0.00 in0.0 mm
04:00 AM 39.9°F4.4°C 27.5°F-2.5°C 61% 6.9 mph SW11.1 kmh SW 11.5 mph18.5 kmh 30.00 in1015.9 mb - 0.00 in0.0 mm 0.00 in0.0 mm
04:10 AM 39.7°F4.3°C 26.9°F-2.8°C 60% 5.8 mph WSW9.3 kmh WSW 6.9 mph11.1 kmh 30.00 in1015.9 mb - 0.00 in0.0 mm 0.00 in0.0 mm
04:20 AM 39.7°F4.3°C 26.9°F-2.8°C 60% 4.6 mph SW7.4 kmh SW 11.5 mph18.5 kmh 29.99 in1015.6 mb - 0.00 in0.0 mm 0.00 in0.0 mm
04:30 AM 39.5°F4.2°C 26.8°F-2.9°C 60% 5.8 mph SW9.3 kmh SW 8.1 mph13.0 kmh 30.00 in1015.9 mb - 0.00 in0.0 mm 0.00 in0.0 mm
04:40 AM 39.6°F4.2°C 26.8°F-2.9°C 60% 5.8 mph SW9.3 kmh SW 10.4 mph16.7 kmh 30.00 in1015.9 mb - 0.00 in0.0 mm 0.00 in0.0 mm
04:50 AM 39.1°F3.9°C 26.8°F-2.9°C 61% 6.9 mph SW11.1 kmh SW 9.2 mph14.8 kmh 30.00 in1015.9 mb - 0.00 in0.0 mm 0.00 in0.0 mm
05:00 AM 38.4°F3.6°C 26.9°F-2.8°C 63% 6.9 mph SW11.1 kmh SW 9.2 mph14.8 kmh 30.00 in1015.9 mb - 0.00 in0.0 mm 0.00 in0.0 mm
05:10 AM 38.0°F3.3°C 26.9°F-2.8°C 64% 6.9 mph SW11.1 kmh SW 11.5 mph18.5 kmh 30.01 in1016.3 mb - 0.00 in0.0 mm 0.00 in0.0 mm
05:20 AM 38.0°F3.3°C 26.9°F-2.8°C 64% 8.1 mph SW13.0 kmh SW 11.5 mph18.5 kmh 30.01 in1016.3 mb - 0.00 in0.0 mm 0.00 in0.0 mm
05:30 AM 37.9°F3.3°C 26.8°F-2.9°C 64% 9.2 mph SW14.8 kmh SW 9.2 mph14.8 kmh 30.01 in1016.3 mb - 0.00 in0.0 mm 0.00 in0.0 mm
05:40 AM 38.0°F3.3°C 26.9°F-2.8°C 64% 10.4 mph SW16.7 kmh SW 16.1 mph25.9 kmh 30.01 in1016.3 mb - 0.00 in0.0 mm 0.00 in0.0 mm
05:50 AM 38.3°F3.5°C 26.8°F-2.9°C 63% 9.2 mph SW14.8 kmh SW 12.7 mph20.4 kmh 30.01 in1016.3 mb - 0.00 in0.0 mm 0.00 in0.0 mm
06:00 AM 38.4°F3.6°C 26.9°F-2.8°C 63% 9.2 mph SW14.8 kmh SW 12.7 mph20.4 kmh 30.01 in1016.3 mb - 0.00 in0.0 mm 0.00 in0.0 mm
06:10 AM 38.3°F3.5°C 26.8°F-2.9°C 63% 6.9 mph SW11.1 kmh SW 19.6 mph31.5 kmh 30.01 in1016.3 mb - 0.00 in0.0 mm 0.00 in0.0 mm
06:20 AM 38.3°F3.5°C 26.8°F-2.9°C 63% 8.1 mph SW13.0 kmh SW 10.4 mph16.7 kmh 30.01 in1016.3 mb - 0.00 in0.0 mm 0.00 in0.0 mm
06:30 AM 38.5°F3.6°C 26.2°F-3.2°C 61% 8.1 mph SW13.0 kmh SW 13.8 mph22.2 kmh 30.01 in1016.3 mb - 0.00 in0.0 mm 0.00 in0.0 mm
06:40 AM 38.4°F3.6°C 26.5°F-3.1°C 62% 6.9 mph SW11.1 kmh SW 9.2 mph14.8 kmh 30.02 in1016.6 mb - 0.00 in0.0 mm 0.00 in0.0 mm
06:50 AM 38.9°F3.8°C 25.8°F-3.4°C 59% 8.1 mph WSW13.0 kmh WSW 10.4 mph16.7 kmh 30.01 in1016.3 mb - 0.00 in0.0 mm 0.00 in0.0 mm
07:00 AM 39.8°F4.3°C 25.3°F-3.7°C 56% 9.2 mph WSW14.8 kmh WSW 15.0 mph24.1 kmh 30.02 in1016.6 mb - 0.00 in0.0 mm 0.00 in0.0 mm
07:10 AM 40.0°F4.4°C 25.5°F-3.6°C 56% 11.5 mph WSW18.5 kmh WSW 19.6 mph31.5 kmh 30.01 in1016.3 mb - 0.00 in0.0 mm 0.00 in0.0 mm
07:20 AM 40.0°F4.4°C 25.1°F-3.8°C 55% 6.9 mph WSW11.1 kmh WSW 15.0 mph24.1 kmh 30.02 in1016.6 mb - 0.00 in0.0 mm 0.00 in0.0 mm
07:30 AM 39.7°F4.3°C 25.7°F-3.5°C 57% 8.1 mph SW13.0 kmh SW 10.4 mph16.7 kmh 30.02 in1016.6 mb - 0.00 in0.0 mm 0.00 in0.0 mm
07:40 AM 39.7°F4.3°C 25.3°F-3.7°C 56% 9.2 mph SW14.8 kmh SW 12.7 mph20.4 kmh 30.02 in1016.6 mb - 0.00 in0.0 mm 0.00 in0.0 mm
07:50 AM 39.7°F4.3°C 25.7°F-3.5°C 57% 9.2 mph WSW14.8 kmh WSW 19.6 mph31.5 kmh 30.02 in1016.6 mb - 0.00 in0.0 mm 0.00 in0.0 mm
08:00 AM 40.0°F4.4°C 26.0°F-3.3°C 57% 9.2 mph WSW14.8 kmh WSW 11.5 mph18.5 kmh 30.02 in1016.6 mb - 0.00 in0.0 mm 0.00 in0.0 mm
08:10 AM 40.3°F4.6°C 26.3°F-3.2°C 57% 13.8 mph WSW22.2 kmh WSW 20.7 mph33.3 kmh 30.02 in1016.6 mb - 0.00 in0.0 mm 0.00 in0.0 mm
08:20 AM 40.4°F4.7°C 27.2°F-2.7°C 59% 6.9 mph WSW11.1 kmh WSW 10.4 mph16.7 kmh 30.02 in1016.6 mb - 0.00 in0.0 mm 0.00 in0.0 mm
08:30 AM 40.9°F4.9°C 26.4°F-3.1°C 56% 16.1 mph SW25.9 kmh SW 21.9 mph35.2 kmh 30.03 in1016.9 mb - 0.00 in0.0 mm 0.00 in0.0 mm
08:40 AM 41.1°F5.1°C 27.0°F-2.8°C 57% 11.5 mph WSW18.5 kmh WSW 19.6 mph31.5 kmh 30.03 in1016.9 mb - 0.00 in0.0 mm 0.00 in0.0 mm
08:50 AM 41.5°F5.3°C 27.8°F-2.3°C 58% 9.2 mph WSW14.8 kmh WSW 15.0 mph24.1 kmh 30.03 in1016.9 mb - 0.00 in0.0 mm 0.00 in0.0 mm
09:00 AM 42.4°F5.8°C 26.9°F-2.8°C 54% 10.4 mph WSW16.7 kmh WSW 17.3 mph27.8 kmh 30.03 in1016.9 mb - 0.00 in0.0 mm 0.00 in0.0 mm
09:10 AM 43.7°F6.5°C 25.8°F-3.4°C 49% 13.8 mph WSW22.2 kmh WSW 26.5 mph42.6 kmh 30.03 in1016.9 mb - 0.00 in0.0 mm 0.00 in0.0 mm
09:20 AM 44.1°F6.7°C 24.6°F-4.1°C 46% 15.0 mph WSW24.1 kmh WSW 25.3 mph40.7 kmh 30.03 in1016.9 mb - 0.00 in0.0 mm 0.00 in0.0 mm
09:30 AM 44.7°F7.1°C 24.6°F-4.1°C 45% 12.7 mph WSW20.4 kmh WSW 12.7 mph20.4 kmh 30.03 in1016.9 mb - 0.00 in0.0 mm 0.00 in0.0 mm
09:40 AM 45.1°F7.3°C 25.0°F-3.9°C 45% 11.5 mph WSW18.5 kmh WSW 19.6 mph31.5 kmh 30.04 in1017.3 mb - 0.00 in0.0 mm 0.00 in0.0 mm
09:50 AM 45.3°F7.4°C 24.6°F-4.1°C 44% 13.8 mph WSW22.2 kmh WSW 19.6 mph31.5 kmh 30.04 in1017.3 mb - 0.00 in0.0 mm 0.00 in0.0 mm
10:00 AM 46.1°F7.8°C 24.3°F-4.3°C 42% 15.0 mph WSW24.1 kmh WSW 24.2 mph38.9 kmh 30.04 in1017.3 mb - 0.00 in0.0 mm 0.00 in0.0 mm
10:10 AM 46.6°F8.1°C 21.0°F-6.1°C 36% 12.7 mph W20.4 kmh W 24.2 mph38.9 kmh 30.04 in1017.3 mb - 0.00 in0.0 mm 0.00 in0.0 mm
10:20 AM 47.0°F8.3°C 23.9°F-4.5°C 40% 9.2 mph W14.8 kmh W 19.6 mph31.5 kmh 30.03 in1016.9 mb - 0.00 in0.0 mm 0.00 in0.0 mm
10:30 AM 47.3°F8.5°C 22.9°F-5.1°C 38% 15.0 mph WSW24.1 kmh WSW 26.5 mph42.6 kmh 30.04 in1017.3 mb - 0.00 in0.0 mm 0.00 in0.0 mm
10:40 AM 47.9°F8.8°C 20.1°F-6.6°C 33% 18.4 mph WSW29.6 kmh WSW 21.9 mph35.2 kmh 30.05 in1017.6 mb - 0.00 in0.0 mm 0.00 in0.0 mm
10:50 AM 48.2°F9.0°C 21.8°F-5.7°C 35% 13.8 mph WSW22.2 kmh WSW 19.6 mph31.5 kmh 30.05 in1017.6 mb - 0.00 in0.0 mm 0.00 in0.0 mm
11:00 AM 48.1°F8.9°C 21.0°F-6.1°C 34% 18.4 mph WSW29.6 kmh WSW 24.2 mph38.9 kmh 30.05 in1017.6 mb - 0.00 in0.0 mm 0.00 in0.0 mm
11:10 AM 48.1°F8.9°C 22.4°F-5.3°C 36% 20.7 mph WSW33.3 kmh WSW 36.8 mph59.2 kmh 30.05 in1017.6 mb - 0.00 in0.0 mm 0.00 in0.0 mm
11:20 AM 48.2°F9.0°C 21.1°F-6.1°C 34% 16.1 mph WSW25.9 kmh WSW 23.0 mph37.0 kmh 30.05 in1017.6 mb - 0.00 in0.0 mm 0.00 in0.0 mm
11:30 AM 48.6°F9.2°C 20.7°F-6.3°C 33% 18.4 mph WSW29.6 kmh WSW 31.1 mph50.1 kmh 30.05 in1017.6 mb - 0.00 in0.0 mm 0.00 in0.0 mm
11:40 AM 48.5°F9.2°C 20.7°F-6.3°C 33% 23.0 mph WSW37.0 kmh WSW 29.9 mph48.1 kmh 30.05 in1017.6 mb - 0.00 in0.0 mm 0.00 in0.0 mm
11:50 AM 48.7°F9.3°C 22.2°F-5.4°C 35% 12.7 mph W20.4 kmh W 28.8 mph46.3 kmh 30.05 in1017.6 mb - 0.00 in0.0 mm 0.00 in0.0 mm
12:00 PM 49.2°F9.6°C 24.0°F-4.4°C 37% 13.8 mph W22.2 kmh W 25.3 mph40.7 kmh 30.05 in1017.6 mb - 0.00 in0.0 mm 0.00 in0.0 mm
12:10 PM 50.3°F10.2°C 23.6°F-4.7°C 35% 9.2 mph WSW14.8 kmh WSW 17.3 mph27.8 kmh 30.05 in1017.6 mb - 0.00 in0.0 mm 0.00 in0.0 mm
12:20 PM 50.4°F10.2°C 20.1°F-6.6°C 30% 20.7 mph W33.3 kmh W 34.5 mph55.5 kmh 30.05 in1017.6 mb - 0.00 in0.0 mm 0.00 in0.0 mm
12:30 PM 50.7°F10.4°C 21.9°F-5.6°C 32% 24.2 mph WSW38.9 kmh WSW 35.7 mph57.5 kmh 30.05 in1017.6 mb - 0.00 in0.0 mm 0.00 in0.0 mm
12:40 PM 51.4°F10.8°C 21.0°F-6.1°C 30% 17.3 mph WSW27.8 kmh WSW 32.2 mph51.8 kmh 30.05 in1017.6 mb - 0.00 in0.0 mm 0.00 in0.0 mm
12:50 PM 51.7°F10.9°C 19.6°F-6.9°C 28% 19.6 mph W31.5 kmh W 34.5 mph55.5 kmh 30.05 in1017.6 mb - 0.00 in0.0 mm 0.00 in0.0 mm
01:00 PM 51.3°F10.7°C 20.1°F-6.6°C 29% 19.6 mph WSW31.5 kmh WSW 28.8 mph46.3 kmh 30.05 in1017.6 mb - 0.00 in0.0 mm 0.00 in0.0 mm
01:10 PM 52.0°F11.1°C 20.7°F-6.3°C 29% 18.4 mph W29.6 kmh W 24.2 mph38.9 kmh 30.05 in1017.6 mb - 0.00 in0.0 mm 0.00 in0.0 mm
01:20 PM 52.6°F11.4°C 22.0°F-5.6°C 30% 11.5 mph WSW18.5 kmh WSW 24.2 mph38.9 kmh 30.05 in1017.6 mb - 0.00 in0.0 mm 0.00 in0.0 mm
01:30 PM 52.8°F11.6°C 20.5°F-6.4°C 28% 19.6 mph WSW31.5 kmh WSW 33.4 mph53.8 kmh 30.05 in1017.6 mb - 0.00 in0.0 mm 0.00 in0.0 mm
01:40 PM 53.0°F11.7°C 17.1°F-8.3°C 24% 19.6 mph W31.5 kmh W 26.5 mph42.6 kmh 30.05 in1017.6 mb - 0.00 in0.0 mm 0.00 in0.0 mm
01:50 PM 53.2°F11.8°C 20.0°F-6.7°C 27% 19.6 mph WSW31.5 kmh WSW 27.6 mph44.4 kmh 30.05 in1017.6 mb - 0.00 in0.0 mm 0.00 in0.0 mm
02:00 PM 53.0°F11.7°C 18.1°F-7.7°C 25% 23.0 mph WSW37.0 kmh WSW 33.4 mph53.8 kmh 30.05 in1017.6 mb - 0.00 in0.0 mm 0.00 in0.0 mm
02:10 PM 53.3°F11.8°C 21.0°F-6.1°C 28% 11.5 mph W18.5 kmh W 19.6 mph31.5 kmh 30.05 in1017.6 mb - 0.00 in0.0 mm 0.00 in0.0 mm
02:20 PM 53.8°F12.1°C 21.4°F-5.9°C 28% 20.7 mph WSW33.3 kmh WSW 31.1 mph50.1 kmh 30.06 in1017.9 mb - 0.00 in0.0 mm 0.00 in0.0 mm
02:30 PM 54.3°F12.4°C 20.1°F-6.6°C 26% 16.1 mph W25.9 kmh W 25.3 mph40.7 kmh 30.05 in1017.6 mb - 0.00 in0.0 mm 0.00 in0.0 mm
02:40 PM 54.3°F12.4°C 19.2°F-7.1°C 25% 21.9 mph WSW35.2 kmh WSW 36.8 mph59.2 kmh 30.06 in1017.9 mb - 0.00 in0.0 mm 0.00 in0.0 mm
02:50 PM 53.5°F11.9°C 16.6°F-8.6°C 23% 21.9 mph W35.2 kmh W 29.9 mph48.1 kmh 30.06 in1017.9 mb - 0.00 in0.0 mm 0.00 in0.0 mm
03:00 PM 53.6°F12.0°C 18.6°F-7.4°C 25% 20.7 mph WSW33.3 kmh WSW 26.5 mph42.6 kmh 30.06 in1017.9 mb - 0.00 in0.0 mm 0.00 in0.0 mm
03:10 PM 53.9°F12.2°C 18.8°F-7.3°C 25% 15.0 mph WSW24.1 kmh WSW 27.6 mph44.4 kmh 30.07 in1018.3 mb - 0.00 in0.0 mm 0.00 in0.0 mm
03:20 PM 53.4°F11.9°C 15.4°F-9.2°C 22% 21.9 mph WSW35.2 kmh WSW 33.4 mph53.8 kmh 30.07 in1018.3 mb - 0.00 in0.0 mm 0.00 in0.0 mm
03:30 PM 53.3°F11.8°C 18.3°F-7.6°C 25% 18.4 mph W29.6 kmh W 20.7 mph33.3 kmh 30.07 in1018.3 mb - 0.00 in0.0 mm 0.00 in0.0 mm
03:40 PM 54.1°F12.3°C 17.1°F-8.3°C 23% 19.6 mph W31.5 kmh W 25.3 mph40.7 kmh 30.07 in1018.3 mb - 0.00 in0.0 mm 0.00 in0.0 mm
03:50 PM 54.2°F12.3°C 16.1°F-8.8°C 22% 19.6 mph WSW31.5 kmh WSW 33.4 mph53.8 kmh 30.07 in1018.3 mb - 0.00 in0.0 mm 0.00 in0.0 mm
04:00 PM 53.9°F12.2°C 16.9°F-8.4°C 23% 15.0 mph W24.1 kmh W 23.0 mph37.0 kmh 30.07 in1018.3 mb - 0.00 in0.0 mm 0.00 in0.0 mm
04:10 PM 54.3°F12.4°C 17.2°F-8.2°C 23% 20.7 mph W33.3 kmh W 31.1 mph50.1 kmh 30.07 in1018.3 mb - 0.00 in0.0 mm 0.00 in0.0 mm
04:20 PM 54.8°F12.7°C 18.6°F-7.4°C 24% 13.8 mph W22.2 kmh W 15.0 mph24.1 kmh 30.07 in1018.3 mb - 0.00 in0.0 mm 0.00 in0.0 mm
04:30 PM 55.0°F12.8°C 17.9°F-7.8°C 23% 15.0 mph W24.1 kmh W 19.6 mph31.5 kmh 30.07 in1018.3 mb - 0.00 in0.0 mm 0.00 in0.0 mm
04:40 PM 55.0°F12.8°C 17.8°F-7.9°C 23% 13.8 mph W22.2 kmh W 17.3 mph27.8 kmh 30.07 in1018.3 mb - 0.00 in0.0 mm 0.00 in0.0 mm
04:50 PM 54.9°F12.7°C 18.7°F-7.4°C 24% 11.5 mph W18.5 kmh W 20.7 mph33.3 kmh 30.07 in1018.3 mb - 0.00 in0.0 mm 0.00 in0.0 mm
05:00 PM 54.8°F12.7°C 19.6°F-6.9°C 25% 13.8 mph W22.2 kmh W 26.5 mph42.6 kmh 30.07 in1018.3 mb - 0.00 in0.0 mm 0.00 in0.0 mm
05:10 PM 54.9°F12.7°C 21.5°F-5.8°C 27% 13.8 mph WSW22.2 kmh WSW 21.9 mph35.2 kmh 30.07 in1018.3 mb - 0.00 in0.0 mm 0.00 in0.0 mm
05:20 PM 54.5°F12.5°C 17.4°F-8.1°C 23% 23.0 mph W37.0 kmh W 26.5 mph42.6 kmh 30.07 in1018.3 mb - 0.00 in0.0 mm 0.00 in0.0 mm
05:30 PM 54.4°F12.4°C 19.3°F-7.1°C 25% 18.4 mph WSW29.6 kmh WSW 19.6 mph31.5 kmh 30.07 in1018.3 mb - 0.00 in0.0 mm 0.00 in0.0 mm
05:40 PM 54.0°F12.2°C 20.7°F-6.3°C 27% 16.1 mph W25.9 kmh W 23.0 mph37.0 kmh 30.07 in1018.3 mb - 0.00 in0.0 mm 0.00 in0.0 mm
05:50 PM 54.0°F12.2°C 18.9°F-7.3°C 25% 17.3 mph WSW27.8 kmh WSW 23.0 mph37.0 kmh 30.07 in1018.3 mb - 0.00 in0.0 mm 0.00 in0.0 mm
06:00 PM 53.7°F12.1°C 19.6°F-6.9°C 26% 11.5 mph WSW18.5 kmh WSW 19.6 mph31.5 kmh 30.08 in1018.6 mb - 0.00 in0.0 mm 0.00 in0.0 mm
06:10 PM 53.1°F11.7°C 20.0°F-6.7°C 27% 6.9 mph WSW11.1 kmh WSW 13.8 mph22.2 kmh 30.08 in1018.6 mb - 0.00 in0.0 mm 0.00 in0.0 mm
06:20 PM 52.3°F11.3°C 20.1°F-6.6°C 28% 10.4 mph WSW16.7 kmh WSW 18.4 mph29.6 kmh 30.09 in1019.0 mb - 0.00 in0.0 mm 0.00 in0.0 mm
06:30 PM 51.8°F11.0°C 21.3°F-5.9°C 30% 9.2 mph WSW14.8 kmh WSW 18.4 mph29.6 kmh 30.09 in1019.0 mb - 0.00 in0.0 mm 0.00 in0.0 mm
06:40 PM 51.1°F10.6°C 20.7°F-6.3°C 30% 8.1 mph WSW13.0 kmh WSW 10.4 mph16.7 kmh 30.09 in1019.0 mb - 0.00 in0.0 mm 0.00 in0.0 mm
06:50 PM 51.0°F10.6°C 20.6°F-6.3°C 30% 6.9 mph WSW11.1 kmh WSW 10.4 mph16.7 kmh 30.09 in1019.0 mb - 0.00 in0.0 mm 0.00 in0.0 mm
07:00 PM 50.9°F10.5°C 20.5°F-6.4°C 30% 13.8 mph WSW22.2 kmh WSW 21.9 mph35.2 kmh 30.09 in1019.0 mb - 0.00 in0.0 mm 0.00 in0.0 mm
07:10 PM 50.7°F10.4°C 20.4°F-6.4°C 30% 12.7 mph WSW20.4 kmh WSW 20.7 mph33.3 kmh 30.10 in1019.3 mb - 0.00 in0.0 mm 0.00 in0.0 mm
07:20 PM 50.6°F10.3°C 21.1°F-6.1°C 31% 9.2 mph WSW14.8 kmh WSW 11.5 mph18.5 kmh 30.10 in1019.3 mb - 0.00 in0.0 mm 0.00 in0.0 mm
07:30 PM 50.1°F10.1°C 21.4°F-5.9°C 32% 6.9 mph W11.1 kmh W 10.4 mph16.7 kmh 30.10 in1019.3 mb - 0.00 in0.0 mm 0.00 in0.0 mm
07:40 PM 49.6°F9.8°C 22.4°F-5.3°C 34% 6.9 mph WSW11.1 kmh WSW 10.4 mph16.7 kmh 30.11 in1019.6 mb - 0.00 in0.0 mm 0.00 in0.0 mm
07:50 PM 49.1°F9.5°C 21.9°F-5.6°C 34% 9.2 mph WSW14.8 kmh WSW 11.5 mph18.5 kmh 30.11 in1019.6 mb - 0.00 in0.0 mm 0.00 in0.0 mm
08:00 PM 48.1°F8.9°C 23.0°F-5.0°C 37% 4.6 mph WSW7.4 kmh WSW 9.2 mph14.8 kmh 30.12 in1020.0 mb - 0.00 in0.0 mm 0.00 in0.0 mm
08:10 PM 47.4°F8.6°C 22.4°F-5.3°C 37% 6.9 mph WSW11.1 kmh WSW 6.9 mph11.1 kmh 30.12 in1020.0 mb - 0.00 in0.0 mm 0.00 in0.0 mm
08:20 PM 47.1°F8.4°C 22.1°F-5.5°C 37% 5.8 mph WSW9.3 kmh WSW 8.1 mph13.0 kmh 30.13 in1020.3 mb - 0.00 in0.0 mm 0.00 in0.0 mm
08:30 PM 47.5°F8.6°C 22.5°F-5.3°C 37% 5.8 mph W9.3 kmh W 12.7 mph20.4 kmh 30.13 in1020.3 mb - 0.00 in0.0 mm 0.00 in0.0 mm
08:40 PM 47.3°F8.5°C 22.3°F-5.4°C 37% 8.1 mph WSW13.0 kmh WSW 11.5 mph18.5 kmh 30.14 in1020.7 mb - 0.00 in0.0 mm 0.00 in0.0 mm
08:50 PM 47.1°F8.4°C 21.5°F-5.8°C 36% 5.8 mph W9.3 kmh W 8.1 mph13.0 kmh 30.14 in1020.7 mb - 0.00 in0.0 mm 0.00 in0.0 mm
09:00 PM 47.2°F8.4°C 22.3°F-5.4°C 37% 5.8 mph W9.3 kmh W 9.2 mph14.8 kmh 30.15 in1021.0 mb - 0.00 in0.0 mm 0.00 in0.0 mm
09:10 PM 47.1°F8.4°C 23.4°F-4.8°C 39% 3.5 mph NW5.6 kmh NW 4.6 mph7.4 kmh 30.15 in1021.0 mb - 0.00 in0.0 mm 0.00 in0.0 mm
09:20 PM 45.4°F7.4°C 24.2°F-4.3°C 43% 3.5 mph NW5.6 kmh NW 4.6 mph7.4 kmh 30.16 in1021.3 mb - 0.00 in0.0 mm 0.00 in0.0 mm
09:30 PM 44.6°F7.0°C 24.0°F-4.4°C 44% 4.6 mph NW7.4 kmh NW 5.8 mph9.3 kmh 30.16 in1021.3 mb - 0.00 in0.0 mm 0.00 in0.0 mm
09:40 PM 44.3°F6.8°C 23.7°F-4.6°C 44% 4.6 mph NW7.4 kmh NW 6.9 mph11.1 kmh 30.16 in1021.3 mb - 0.00 in0.0 mm 0.00 in0.0 mm
09:50 PM 44.4°F6.9°C 23.3°F-4.8°C 43% 4.6 mph WNW7.4 kmh WNW 8.1 mph13.0 kmh 30.16 in1021.3 mb - 0.00 in0.0 mm 0.00 in0.0 mm
10:00 PM 44.5°F6.9°C 22.8°F-5.1°C 42% 4.6 mph WNW7.4 kmh WNW 8.1 mph13.0 kmh 30.16 in1021.3 mb - 0.00 in0.0 mm 0.00 in0.0 mm
10:10 PM 44.4°F6.9°C 22.7°F-5.2°C 42% 4.6 mph NW7.4 kmh NW 8.1 mph13.0 kmh 30.16 in1021.3 mb - 0.00 in0.0 mm 0.00 in0.0 mm
10:20 PM 44.1°F6.7°C 23.0°F-5.0°C 43% 4.6 mph NW7.4 kmh NW 4.6 mph7.4 kmh 30.17 in1021.7 mb - 0.00 in0.0 mm 0.00 in0.0 mm
10:30 PM 43.1°F6.2°C 23.7°F-4.6°C 46% 3.5 mph NW5.6 kmh NW 3.5 mph5.6 kmh 30.17 in1021.7 mb - 0.00 in0.0 mm 0.00 in0.0 mm
10:40 PM 42.1°F5.6°C 23.3°F-4.8°C 47% 3.5 mph WNW5.6 kmh WNW 5.8 mph9.3 kmh 30.17 in1021.7 mb - 0.00 in0.0 mm 0.00 in0.0 mm
10:50 PM 41.6°F5.3°C 23.4°F-4.8°C 48% 3.5 mph WNW5.6 kmh WNW 3.5 mph5.6 kmh 30.17 in1021.7 mb - 0.00 in0.0 mm 0.00 in0.0 mm
11:00 PM 41.3°F5.2°C 23.6°F-4.7°C 49% 2.3 mph WNW3.7 kmh WNW 3.5 mph5.6 kmh 30.16 in1021.3 mb - 0.00 in0.0 mm 0.00 in0.0 mm
11:10 PM 40.7°F4.8°C 24.0°F-4.4°C 51% 3.5 mph WNW5.6 kmh WNW 4.6 mph7.4 kmh 30.16 in1021.3 mb - 0.00 in0.0 mm 0.00 in0.0 mm
11:20 PM 40.1°F4.5°C 23.4°F-4.8°C 51% 2.3 mph WNW3.7 kmh WNW 3.5 mph5.6 kmh 30.17 in1021.7 mb - 0.00 in0.0 mm 0.00 in0.0 mm
11:30 PM 39.8°F4.3°C 23.6°F-4.7°C 52% 2.3 mph NW3.7 kmh NW 3.5 mph5.6 kmh 30.16 in1021.3 mb - 0.00 in0.0 mm 0.00 in0.0 mm
11:40 PM 39.6°F4.2°C 23.4°F-4.8°C 52% 2.3 mph WNW3.7 kmh WNW 3.5 mph5.6 kmh 30.17 in1021.7 mb - 0.00 in0.0 mm 0.00 in0.0 mm
11:50 PM 39.5°F4.2°C 23.8°F-4.6°C 53% 3.5 mph NW5.6 kmh NW 4.6 mph7.4 kmh 30.17 in1021.7 mb - 0.00 in0.0 mm 0.00 in0.0 mm